createdAt,value
2018-09-26T00:01:45.633Z,12.16
2018-09-26T00:06:47.753Z,12.26
2018-09-26T00:11:49.899Z,12.29
2018-09-26T00:16:52.095Z,12.32
2018-09-26T00:21:54.280Z,12.31
2018-09-26T00:26:56.400Z,12.26
2018-09-26T00:31:58.518Z,12.28
2018-09-26T00:37:00.625Z,12.32
2018-09-26T00:42:02.751Z,12.32
2018-09-26T00:47:05.103Z,12.26
2018-09-26T00:52:07.276Z,12.34
2018-09-26T00:57:09.391Z,12.24
2018-09-26T01:02:11.564Z,12.26
2018-09-26T01:07:13.669Z,12.24
2018-09-26T01:12:15.806Z,12.29
2018-09-26T01:17:17.989Z,12.15
2018-09-26T01:22:20.172Z,12.23
2018-09-26T01:27:22.259Z,12.20
2018-09-26T01:32:24.377Z,12.21
2018-09-26T01:37:26.518Z,12.29
2018-09-26T01:42:28.639Z,12.25
2018-09-26T01:47:30.759Z,12.22
2018-09-26T01:52:32.927Z,12.23
2018-09-26T01:57:35.047Z,12.23
2018-09-26T02:02:37.144Z,12.07
2018-09-26T02:07:39.311Z,12.15
2018-09-26T02:12:41.433Z,12.34
2018-09-26T02:17:43.573Z,12.27
2018-09-26T02:22:45.682Z,12.32
2018-09-26T02:27:47.792Z,12.27
2018-09-26T02:32:49.952Z,12.34
2018-09-26T02:37:52.147Z,12.30
2018-09-26T02:42:54.285Z,12.40
2018-09-26T02:47:56.370Z,12.33
2018-09-26T02:52:58.519Z,12.36
2018-09-26T02:58:00.624Z,12.32
2018-09-26T03:03:02.746Z,12.24
2018-09-26T03:08:04.845Z,12.26
2018-09-26T03:13:07.104Z,12.28
2018-09-26T03:18:09.235Z,12.24
2018-09-26T03:23:11.988Z,12.17
2018-09-26T03:28:14.079Z,12.28
2018-09-26T03:33:16.311Z,12.21
2018-09-26T03:38:18.404Z,12.27
2018-09-26T03:43:20.484Z,12.26
2018-09-26T03:48:22.596Z,11.98
2018-09-26T03:53:24.743Z,12.06
2018-09-26T03:58:26.849Z,12.01
2018-09-26T04:03:29.243Z,11.96
2018-09-26T04:08:31.364Z,11.92
2018-09-26T04:13:33.481Z,11.84
2018-09-26T04:18:35.598Z,11.89
2018-09-26T04:23:37.711Z,11.93
2018-09-26T04:28:39.827Z,11.90
2018-09-26T04:33:42.031Z,11.89
2018-09-26T04:38:44.159Z,11.77
2018-09-26T04:43:46.234Z,11.79
2018-09-26T04:48:48.334Z,11.82
2018-09-26T04:53:50.499Z,11.78
2018-09-26T04:58:52.604Z,11.79
2018-09-26T05:03:54.708Z,11.70
2018-09-26T05:08:56.835Z,11.75
2018-09-26T05:13:58.959Z,11.63
2018-09-26T05:19:01.253Z,11.62
2018-09-26T05:24:03.407Z,11.70
2018-09-26T05:29:05.542Z,11.70
2018-09-26T05:34:07.660Z,11.78
2018-09-26T05:39:11.079Z,11.75
2018-09-26T05:44:13.193Z,11.74
2018-09-26T05:49:15.361Z,11.70
2018-09-26T05:54:17.499Z,11.72
2018-09-26T05:59:19.639Z,11.67
2018-09-26T06:04:21.741Z,11.51
2018-09-26T06:09:23.876Z,11.54
2018-09-26T06:14:25.998Z,11.53
2018-09-26T06:19:28.136Z,11.43
2018-09-26T06:24:30.266Z,11.37
2018-09-26T06:29:32.441Z,11.45
2018-09-26T06:34:34.581Z,11.58
2018-09-26T06:39:36.677Z,11.55
2018-09-26T06:44:38.791Z,11.60
2018-09-26T06:49:40.918Z,11.44
2018-09-26T06:54:43.068Z,11.65
2018-09-26T06:59:45.208Z,11.47
2018-09-26T07:04:47.372Z,11.50
2018-09-26T07:09:49.460Z,11.74
2018-09-26T07:14:51.589Z,11.61
2018-09-26T07:19:53.708Z,11.69
2018-09-26T07:24:55.847Z,11.77
2018-09-26T07:29:57.946Z,11.85
2018-09-26T07:35:00.094Z,12.07
2018-09-26T07:40:02.248Z,12.19
2018-09-26T07:45:04.709Z,12.33
2018-09-26T07:50:06.851Z,12.34
2018-09-26T07:55:09.060Z,12.43
2018-09-26T08:00:11.187Z,12.45
2018-09-26T08:05:13.296Z,12.63
2018-09-26T08:10:15.414Z,12.70
2018-09-26T08:15:17.567Z,12.76
2018-09-26T08:20:19.719Z,12.70
2018-09-26T08:25:21.831Z,12.72
2018-09-26T08:30:23.935Z,12.74
2018-09-26T08:35:26.088Z,12.88
2018-09-26T08:40:28.201Z,13.15
2018-09-26T08:50:45.543Z,13.26
2018-09-26T08:55:47.707Z,13.67
2018-09-26T09:00:52.371Z,13.92
2018-09-26T09:05:54.463Z,14.65
2018-09-26T09:10:56.583Z,15.01
2018-09-26T09:15:59.011Z,14.33
2018-09-26T09:21:01.163Z,14.13
2018-09-26T09:26:03.644Z,14.34
2018-09-26T09:31:05.790Z,14.43
2018-09-26T09:36:07.910Z,13.99
2018-09-26T09:41:10.158Z,14.06
2018-09-26T09:46:12.259Z,14.02
2018-09-26T09:51:14.434Z,14.17
2018-09-26T09:56:16.672Z,14.25
2018-09-26T10:01:25.202Z,14.48
2018-09-26T10:06:27.946Z,14.63
2018-09-26T10:11:30.123Z,14.58
2018-09-26T10:16:32.270Z,14.37
2018-09-26T10:21:34.441Z,14.25
2018-09-26T10:26:36.554Z,14.22
2018-09-26T10:31:38.689Z,14.37
2018-09-26T10:36:40.821Z,14.29
2018-09-26T10:41:42.955Z,14.54
2018-09-26T10:46:45.179Z,14.72
2018-09-26T10:51:47.232Z,14.77
2018-09-26T10:56:49.411Z,14.78
2018-09-26T11:01:51.526Z,14.99
2018-09-26T11:06:54.008Z,15.06
2018-09-26T11:11:56.163Z,15.18
2018-09-26T11:16:58.279Z,15.32
2018-09-26T11:22:00.530Z,15.51
2018-09-26T11:27:02.703Z,15.72
2018-09-26T11:32:05.136Z,15.51
2018-09-26T11:37:07.314Z,15.61
2018-09-26T11:42:09.497Z,15.59
2018-09-26T11:47:11.681Z,15.66
2018-09-26T11:52:13.860Z,15.61
2018-09-26T11:57:15.992Z,15.63
2018-09-26T12:02:18.262Z,15.58
2018-09-26T12:07:20.325Z,15.45
2018-09-26T12:12:22.516Z,15.50
2018-09-26T12:17:24.596Z,15.40
2018-09-26T12:22:26.774Z,15.28
2018-09-26T12:27:28.871Z,15.49
2018-09-26T12:32:30.972Z,15.64
2018-09-26T12:37:33.101Z,15.60
2018-09-26T12:42:35.270Z,15.67
2018-09-26T12:47:37.374Z,15.79
2018-09-26T12:52:39.584Z,15.77
2018-09-26T12:57:41.760Z,15.77
2018-09-26T13:02:43.936Z,15.80
2018-09-26T13:07:46.104Z,15.65
2018-09-26T13:12:48.255Z,15.56
2018-09-26T13:17:50.470Z,15.54
2018-09-26T13:22:52.599Z,15.58
2018-09-26T13:27:54.752Z,15.89
2018-09-26T13:32:56.916Z,15.91
2018-09-26T13:37:59.099Z,15.75
2018-09-26T13:43:01.370Z,15.58
2018-09-26T13:48:03.643Z,15.55
2018-09-26T13:53:05.776Z,15.28
2018-09-26T13:58:08.011Z,15.11
2018-09-26T14:03:10.149Z,15.08
2018-09-26T14:08:12.301Z,15.12
2018-09-26T14:13:14.481Z,15.19
2018-09-26T14:18:16.822Z,15.05
2018-09-26T14:23:18.996Z,14.95
2018-09-26T14:28:21.187Z,14.88
2018-09-26T14:33:23.476Z,14.88
2018-09-26T14:38:25.620Z,14.84
2018-09-26T14:43:27.760Z,14.90
2018-09-26T14:48:29.890Z,14.74
2018-09-26T14:53:32.066Z,14.76
2018-09-26T14:58:34.244Z,14.72
2018-09-26T15:03:36.431Z,14.67
2018-09-26T15:08:38.636Z,14.67
2018-09-26T15:13:40.753Z,14.65
2018-09-26T15:18:42.898Z,14.67
2018-09-26T15:23:45.052Z,14.58
2018-09-26T15:28:47.220Z,14.65
2018-09-26T15:33:49.380Z,14.62
2018-09-26T15:38:51.500Z,14.57
2018-09-26T15:43:53.622Z,14.63
2018-09-26T15:48:55.841Z,14.53
2018-09-26T15:53:58.017Z,14.55
2018-09-26T15:59:00.561Z,14.60
2018-09-26T16:04:02.765Z,14.69
2018-09-26T16:09:05.177Z,14.63
2018-09-26T16:14:07.440Z,14.56
2018-09-26T16:19:09.626Z,14.50
2018-09-26T16:24:11.812Z,14.48
2018-09-26T16:29:13.943Z,14.58
2018-09-26T16:34:16.210Z,14.50
2018-09-26T16:39:18.526Z,14.43
2018-09-26T16:44:20.633Z,14.33
2018-09-26T16:49:22.886Z,14.36
2018-09-26T16:54:25.205Z,14.35
2018-09-26T16:59:27.318Z,14.33
2018-09-26T17:04:29.512Z,14.25
2018-09-26T17:09:31.745Z,14.25
2018-09-26T17:14:33.924Z,14.18
2018-09-26T17:19:36.105Z,14.33
2018-09-26T17:24:38.309Z,14.24
2018-09-26T17:29:40.574Z,14.29
2018-09-26T17:34:42.904Z,14.36
2018-09-26T17:39:45.469Z,14.37
2018-09-26T17:44:47.811Z,14.36
2018-09-26T17:49:50.013Z,14.50
2018-09-26T17:54:52.212Z,14.50
2018-09-26T17:59:54.509Z,14.59
2018-09-26T18:04:56.979Z,14.48
2018-09-26T18:09:59.264Z,14.61
2018-09-26T18:15:01.492Z,14.60
2018-09-26T18:20:03.794Z,14.67
2018-09-26T18:25:06.283Z,14.62
2018-09-26T18:30:08.583Z,14.66
2018-09-26T18:35:10.859Z,14.65
2018-09-26T18:40:13.316Z,14.59
2018-09-26T18:45:15.718Z,14.59
2018-09-26T18:50:18.069Z,14.58
2018-09-26T18:55:20.338Z,14.65
2018-09-26T19:00:22.857Z,14.64
2018-09-26T19:05:25.630Z,14.62
2018-09-26T19:10:29.051Z,14.61
2018-09-26T19:15:31.854Z,14.54
2018-09-26T19:20:34.282Z,14.64
2018-09-26T19:25:36.961Z,14.62
2018-09-26T19:30:39.452Z,14.66
2018-09-26T19:35:41.966Z,14.67
2018-09-26T19:40:44.300Z,14.65
2018-09-26T19:45:46.555Z,14.78
2018-09-26T19:50:48.886Z,14.77
2018-09-26T19:55:51.276Z,14.81
2018-09-26T20:00:53.661Z,14.82
2018-09-26T20:05:55.941Z,14.74
2018-09-26T20:10:58.246Z,14.83
2018-09-26T20:16:01.250Z,14.78
2018-09-26T20:21:03.558Z,14.81
2018-09-26T20:26:05.776Z,14.80
2018-09-26T20:31:08.363Z,14.87
2018-09-26T20:36:10.468Z,14.78
2018-09-26T20:41:12.680Z,14.97
2018-09-26T20:46:14.874Z,14.94
2018-09-26T20:51:17.089Z,15.03
2018-09-26T20:56:19.284Z,15.02
2018-09-26T21:01:21.466Z,14.95
2018-09-26T21:06:23.716Z,14.90
2018-09-26T21:11:25.955Z,14.96
2018-09-26T21:16:28.103Z,14.97
2018-09-26T21:21:30.250Z,15.00
2018-09-26T21:26:32.450Z,15.02
2018-09-26T21:31:34.614Z,15.10
2018-09-26T21:36:36.779Z,15.07
2018-09-26T21:41:38.975Z,15.11
2018-09-26T21:46:41.114Z,15.10
2018-09-26T21:51:43.320Z,15.10
2018-09-26T21:56:45.493Z,15.12
2018-09-26T22:01:47.713Z,15.14
2018-09-26T22:06:50.359Z,15.14
2018-09-26T22:11:53.488Z,15.13
2018-09-26T22:16:55.668Z,15.14
2018-09-26T22:21:57.895Z,15.21
2018-09-26T22:27:00.060Z,15.23
2018-09-26T22:32:02.220Z,15.19
2018-09-26T22:37:04.912Z,15.21
2018-09-26T22:42:07.076Z,15.24
2018-09-26T22:47:09.223Z,15.29
2018-09-26T22:52:11.358Z,15.31
2018-09-26T22:57:13.831Z,15.28
2018-09-26T23:02:16.252Z,15.30
2018-09-26T23:07:18.389Z,15.32
2018-09-26T23:12:20.555Z,15.30
2018-09-26T23:17:22.700Z,15.30
2018-09-26T23:22:24.878Z,15.32
2018-09-26T23:27:27.034Z,15.36
2018-09-26T23:32:29.239Z,15.38
2018-09-26T23:37:31.386Z,15.33
2018-09-26T23:42:33.532Z,15.40
2018-09-26T23:47:35.728Z,15.36
2018-09-26T23:52:37.871Z,15.39
2018-09-26T23:57:40.032Z,15.36
